createdAt,value
2023-04-26T00:00:09.904Z,65.87
2023-04-26T00:03:00.239Z,65.54
2023-04-26T00:05:29.859Z,66.37
2023-04-26T00:07:58.457Z,65.77
2023-04-26T00:10:26.494Z,65.25
2023-04-26T00:12:54.385Z,65.38
2023-04-26T00:15:22.530Z,65.79
2023-04-26T00:17:50.953Z,65.61
2023-04-26T00:20:19.123Z,65.67
2023-04-26T00:22:47.154Z,65.91
2023-04-26T00:25:15.333Z,66.89
2023-04-26T00:27:43.414Z,67.20
2023-04-26T00:30:12.348Z,67.10
2023-04-26T00:32:40.506Z,66.61
2023-04-26T00:35:09.217Z,67.28
2023-04-26T00:37:37.352Z,67.46
2023-04-26T00:40:06.557Z,67.37
2023-04-26T00:42:34.587Z,67.30
2023-04-26T00:45:02.656Z,67.83
2023-04-26T00:47:31.298Z,68.61
2023-04-26T00:50:01.761Z,68.82
2023-04-26T00:52:31.834Z,68.70
2023-04-26T00:55:00.115Z,68.19
2023-04-26T00:57:28.641Z,67.92
2023-04-26T00:59:56.898Z,68.22
2023-04-26T01:02:25.812Z,69.06
2023-04-26T01:04:53.979Z,69.07
2023-04-26T01:07:22.520Z,69.06
2023-04-26T01:09:50.942Z,68.06
2023-04-26T01:12:19.826Z,67.70
2023-04-26T01:14:48.001Z,67.59
2023-04-26T01:17:17.009Z,67.43
2023-04-26T01:19:52.139Z,66.94
2023-04-26T01:22:20.094Z,67.05
2023-04-26T01:24:51.657Z,66.87
2023-04-26T01:27:19.780Z,66.59
2023-04-26T01:29:48.930Z,66.59
2023-04-26T01:32:17.037Z,66.65
2023-04-26T01:34:45.081Z,66.84
2023-04-26T01:37:13.124Z,66.85
2023-04-26T01:39:41.125Z,66.94
2023-04-26T01:42:09.022Z,66.75
2023-04-26T01:44:37.476Z,66.96
2023-04-26T01:47:06.241Z,66.78
2023-04-26T01:49:34.465Z,66.77
2023-04-26T01:52:02.537Z,67.27
2023-04-26T01:54:31.371Z,67.17
2023-04-26T01:57:01.396Z,67.25
2023-04-26T01:59:29.452Z,67.38
2023-04-26T02:02:00.269Z,67.60
2023-04-26T02:04:28.654Z,68.15
2023-04-26T02:06:57.362Z,68.17
2023-04-26T02:09:25.590Z,67.97
2023-04-26T02:11:53.591Z,68.30
2023-04-26T02:14:21.864Z,68.55
2023-04-26T02:16:52.008Z,68.48
2023-04-26T02:19:20.160Z,68.14
2023-04-26T02:21:52.870Z,68.55
2023-04-26T02:24:21.843Z,68.43
2023-04-26T02:26:50.121Z,69.05
2023-04-26T02:29:19.281Z,69.70
2023-04-26T02:31:49.609Z,69.98
2023-04-26T02:34:17.597Z,70.49
2023-04-26T02:36:45.863Z,70.67
2023-04-26T02:39:14.260Z,70.70
2023-04-26T02:41:42.309Z,70.48
2023-04-26T02:44:10.240Z,70.43
2023-04-26T02:46:38.382Z,70.19
2023-04-26T02:49:07.039Z,70.51
2023-04-26T02:51:35.324Z,70.07
2023-04-26T02:54:04.627Z,70.18
2023-04-26T02:56:34.532Z,70.28
2023-04-26T02:59:02.590Z,70.26
2023-04-26T03:01:31.035Z,70.17
2023-04-26T03:03:59.490Z,70.11
2023-04-26T03:06:28.755Z,70.20
2023-04-26T03:08:56.930Z,70.65
2023-04-26T03:11:24.993Z,70.83
2023-04-26T03:13:53.479Z,70.61
2023-04-26T03:16:24.138Z,70.46
2023-04-26T03:18:52.379Z,70.63
2023-04-26T03:21:21.443Z,71.03
2023-04-26T03:23:49.868Z,71.24
2023-04-26T03:26:17.917Z,71.13
2023-04-26T03:28:47.031Z,71.42
2023-04-26T03:31:15.233Z,71.91
2023-04-26T03:33:43.292Z,71.88
2023-04-26T03:36:11.339Z,72.14
2023-04-26T03:38:39.352Z,72.36
2023-04-26T03:41:07.491Z,72.45
2023-04-26T03:43:35.548Z,73.15
2023-04-26T03:46:03.601Z,72.99
2023-04-26T03:48:31.693Z,72.99
2023-04-26T03:50:59.662Z,72.92
2023-04-26T03:53:29.454Z,72.78
2023-04-26T03:55:58.151Z,72.70
2023-04-26T03:58:26.432Z,72.55
2023-04-26T04:00:58.616Z,72.51
2023-04-26T04:03:26.865Z,72.34
2023-04-26T04:05:55.147Z,72.37
2023-04-26T04:08:23.631Z,71.76
2023-04-26T04:10:52.423Z,71.85
2023-04-26T04:13:20.687Z,71.64
2023-04-26T04:15:49.366Z,71.56
2023-04-26T04:18:17.759Z,71.55
2023-04-26T04:20:46.191Z,71.58
2023-04-26T04:23:14.302Z,71.17
2023-04-26T04:25:44.088Z,70.79
2023-04-26T04:28:13.669Z,70.55
2023-04-26T04:30:43.721Z,70.21
2023-04-26T04:33:12.331Z,70.26
2023-04-26T04:35:42.013Z,69.78
2023-04-26T04:38:10.027Z,69.86
2023-04-26T04:40:38.073Z,69.62
2023-04-26T04:43:06.438Z,69.41
2023-04-26T04:45:35.638Z,69.53
2023-04-26T04:48:05.482Z,69.18
2023-04-26T04:50:34.077Z,69.09
2023-04-26T04:53:02.127Z,69.02
2023-04-26T04:55:30.916Z,68.86
2023-04-26T04:57:59.067Z,68.49
2023-04-26T05:00:27.840Z,68.39
2023-04-26T05:03:05.238Z,68.46
2023-04-26T05:05:34.029Z,68.15
2023-04-26T05:08:02.158Z,68.16
2023-04-26T05:10:30.578Z,67.95
2023-04-26T05:12:58.658Z,68.19
2023-04-26T05:15:26.596Z,67.87
2023-04-26T05:17:56.090Z,67.77
2023-04-26T05:20:26.150Z,67.94
2023-04-26T05:22:54.516Z,68.02
2023-04-26T05:25:23.083Z,68.14
2023-04-26T05:27:57.328Z,67.75
2023-04-26T05:30:50.172Z,67.89
2023-04-26T05:33:34.555Z,68.36
2023-04-26T05:36:29.984Z,68.32
2023-04-26T05:38:58.180Z,68.24
2023-04-26T05:41:26.094Z,68.04
2023-04-26T05:43:54.622Z,67.71
2023-04-26T05:46:23.055Z,68.12
2023-04-26T05:48:51.216Z,67.96
2023-04-26T05:51:19.193Z,67.73
2023-04-26T05:53:48.035Z,67.43
2023-04-26T05:56:16.240Z,67.35
2023-04-26T05:58:44.400Z,67.30
2023-04-26T06:01:12.535Z,67.29
2023-04-26T06:03:40.862Z,67.06
2023-04-26T06:06:10.089Z,66.97
2023-04-26T06:08:39.558Z,66.66
2023-04-26T06:11:07.793Z,66.25
2023-04-26T06:13:35.806Z,66.47
2023-04-26T06:16:04.290Z,66.23
2023-04-26T06:18:32.358Z,66.14
2023-04-26T06:21:00.337Z,65.41
2023-04-26T06:23:28.590Z,65.43
2023-04-26T06:25:56.560Z,65.48
2023-04-26T06:28:24.986Z,65.65
2023-04-26T06:30:53.058Z,65.73
2023-04-26T06:33:21.089Z,65.31
2023-04-26T06:35:49.426Z,65.31
2023-04-26T06:38:17.512Z,65.26
2023-04-26T06:40:46.110Z,65.35
2023-04-26T06:43:14.735Z,64.45
2023-04-26T06:46:00.382Z,64.12
2023-04-26T06:48:28.554Z,63.89
2023-04-26T06:50:57.315Z,63.88
2023-04-26T06:53:25.324Z,63.72
2023-04-26T06:55:54.308Z,63.62
2023-04-26T06:58:22.266Z,63.62
2023-04-26T07:00:50.793Z,63.29
2023-04-26T07:03:18.966Z,62.76
2023-04-26T07:05:47.195Z,62.58
2023-04-26T07:08:15.294Z,61.94
2023-04-26T07:10:43.924Z,61.58
2023-04-26T07:13:12.148Z,60.75
2023-04-26T07:15:40.242Z,60.90
2023-04-26T07:18:08.736Z,60.78
2023-04-26T07:20:36.715Z,60.78
2023-04-26T07:23:04.665Z,60.70
2023-04-26T07:25:32.752Z,59.76
2023-04-26T07:28:00.857Z,58.77
2023-04-26T07:30:29.086Z,58.45
2023-04-26T07:32:57.148Z,58.09
2023-04-26T07:35:25.514Z,58.39
2023-04-26T07:37:53.486Z,57.86
2023-04-26T07:40:22.923Z,57.05
2023-04-26T07:42:51.061Z,56.72
2023-04-26T07:45:19.722Z,56.25
2023-04-26T07:47:48.031Z,56.23
2023-04-26T07:50:16.077Z,55.78
2023-04-26T07:52:44.745Z,55.73
2023-04-26T07:55:12.864Z,55.37
2023-04-26T07:57:41.994Z,54.91
2023-04-26T08:00:11.051Z,54.67
2023-04-26T08:02:45.178Z,54.20
2023-04-26T08:05:14.496Z,54.17
2023-04-26T08:07:43.554Z,54.30
2023-04-26T08:10:12.178Z,54.37
2023-04-26T08:12:40.225Z,54.28
2023-04-26T08:15:09.314Z,54.09
2023-04-26T08:17:37.777Z,54.07
2023-04-26T08:20:06.479Z,52.88
2023-04-26T08:22:34.476Z,52.00
2023-04-26T08:25:02.444Z,51.63
2023-04-26T08:27:30.651Z,52.07
2023-04-26T08:29:58.896Z,52.09
2023-04-26T08:32:26.901Z,51.90
2023-04-26T08:34:55.550Z,51.58
2023-04-26T08:37:23.518Z,51.72
2023-04-26T08:39:51.571Z,52.12
2023-04-26T08:42:21.212Z,51.72
2023-04-26T08:44:49.960Z,51.36
2023-04-26T08:47:32.830Z,51.86
2023-04-26T08:50:03.869Z,51.94
2023-04-26T08:52:32.804Z,50.87
2023-04-26T08:55:01.293Z,51.09
2023-04-26T08:57:33.187Z,51.77
2023-04-26T09:00:05.828Z,50.94
2023-04-26T09:02:35.116Z,50.76
2023-04-26T09:05:04.730Z,51.11
2023-04-26T09:07:47.262Z,50.72
2023-04-26T09:10:21.723Z,51.32
2023-04-26T09:12:52.448Z,51.14
2023-04-26T09:15:25.280Z,51.60
2023-04-26T09:17:54.176Z,51.02
2023-04-26T09:20:24.586Z,50.74
2023-04-26T09:22:55.183Z,50.36
2023-04-26T09:25:31.694Z,50.37
2023-04-26T09:28:00.804Z,50.38
2023-04-26T09:30:29.413Z,49.71
2023-04-26T09:33:06.806Z,50.43
2023-04-26T09:35:34.965Z,49.80
2023-04-26T09:38:12.308Z,50.02
2023-04-26T09:40:42.256Z,50.47
2023-04-26T09:43:21.862Z,51.02
2023-04-26T09:45:58.160Z,51.24
2023-04-26T09:48:26.937Z,51.28
2023-04-26T09:50:57.389Z,51.41
2023-04-26T09:53:27.777Z,51.50
2023-04-26T09:55:56.931Z,50.77
2023-04-26T09:58:24.960Z,51.20
2023-04-26T10:00:53.259Z,51.46
2023-04-26T10:03:23.467Z,51.90
2023-04-26T10:05:52.352Z,52.75
2023-04-26T10:08:20.715Z,52.78
2023-04-26T10:10:49.993Z,53.36
2023-04-26T10:13:19.319Z,53.68
2023-04-26T10:15:48.258Z,53.73
2023-04-26T10:18:16.406Z,54.32
2023-04-26T10:20:48.652Z,54.46
2023-04-26T10:23:22.210Z,55.02
2023-04-26T10:25:50.241Z,55.06
2023-04-26T10:28:19.407Z,54.73
2023-04-26T10:30:56.695Z,54.90
2023-04-26T10:33:26.221Z,54.82
2023-04-26T10:36:01.616Z,54.73
2023-04-26T10:38:30.113Z,55.31
2023-04-26T10:41:37.476Z,55.21
2023-04-26T10:44:37.997Z,55.51
2023-04-26T10:47:08.607Z,56.20
2023-04-26T10:49:49.659Z,56.63
2023-04-26T10:52:20.565Z,56.23
2023-04-26T10:54:59.034Z,55.66
2023-04-26T10:57:52.831Z,55.56
2023-04-26T11:00:27.939Z,55.95
2023-04-26T11:03:07.019Z,55.76
2023-04-26T11:05:47.505Z,56.06
2023-04-26T11:08:25.715Z,56.28
2023-04-26T11:11:10.886Z,56.95
2023-04-26T11:13:40.824Z,57.67
2023-04-26T11:16:13.794Z,59.00
2023-04-26T11:18:44.655Z,60.56
2023-04-26T11:21:15.540Z,62.16
2023-04-26T11:23:53.726Z,62.14
2023-04-26T11:26:22.567Z,62.38
2023-04-26T11:28:50.980Z,62.86
2023-04-26T11:31:19.558Z,62.75
2023-04-26T11:33:49.908Z,62.97
2023-04-26T11:36:19.906Z,63.40
2023-04-26T11:38:48.045Z,63.37
2023-04-26T11:41:16.203Z,62.86
2023-04-26T11:43:44.520Z,62.23
2023-04-26T11:46:12.595Z,62.35
2023-04-26T11:48:41.418Z,62.08
2023-04-26T11:51:10.625Z,61.98
2023-04-26T11:53:43.369Z,62.24
2023-04-26T11:56:18.766Z,62.33
2023-04-26T11:58:50.876Z,61.83
2023-04-26T12:01:24.005Z,61.67
2023-04-26T12:03:54.527Z,61.61
2023-04-26T12:06:41.844Z,62.05
2023-04-26T12:09:11.590Z,61.78
2023-04-26T12:11:40.494Z,61.81
2023-04-26T12:14:10.341Z,61.39
2023-04-26T12:16:38.745Z,60.37
2023-04-26T12:19:08.025Z,59.87
2023-04-26T12:21:43.352Z,59.64
2023-04-26T12:24:34.173Z,59.10
2023-04-26T12:27:08.779Z,59.14
2023-04-26T12:29:36.784Z,58.91
2023-04-26T12:32:05.401Z,58.40
2023-04-26T12:34:33.645Z,58.52
2023-04-26T12:37:01.686Z,57.98
2023-04-26T12:39:30.010Z,57.01
2023-04-26T12:41:58.158Z,57.20
2023-04-26T12:44:26.465Z,57.39
2023-04-26T12:46:54.503Z,56.94
2023-04-26T12:49:22.510Z,56.40
2023-04-26T12:51:50.608Z,56.47
2023-04-26T12:54:18.612Z,56.43
2023-04-26T12:56:46.886Z,56.48
2023-04-26T12:59:14.939Z,56.20
2023-04-26T13:01:43.156Z,56.59
2023-04-26T13:04:11.754Z,56.62
2023-04-26T13:06:40.123Z,55.93
2023-04-26T13:09:08.619Z,55.24
2023-04-26T13:11:36.855Z,55.66
2023-04-26T13:14:06.970Z,55.58
2023-04-26T13:16:35.060Z,54.99
2023-04-26T13:19:03.181Z,55.25
2023-04-26T13:21:31.285Z,54.72
2023-04-26T13:23:59.358Z,54.16
2023-04-26T13:26:28.073Z,54.07
2023-04-26T13:28:56.422Z,53.66
2023-04-26T13:31:25.011Z,52.75
2023-04-26T13:33:53.062Z,53.07
2023-04-26T13:36:21.271Z,52.80
2023-04-26T13:38:49.273Z,52.97
2023-04-26T13:41:17.508Z,52.66
2023-04-26T13:43:45.755Z,52.60
2023-04-26T13:46:13.890Z,53.12
2023-04-26T13:48:43.618Z,53.59
2023-04-26T13:51:12.062Z,53.01
2023-04-26T13:53:40.495Z,52.53
2023-04-26T13:56:09.662Z,51.43
2023-04-26T13:58:37.861Z,50.66
2023-04-26T14:01:06.275Z,49.75
2023-04-26T14:03:35.156Z,45.92
2023-04-26T14:06:03.728Z,45.37
2023-04-26T14:08:31.991Z,45.58
2023-04-26T14:11:00.060Z,46.47
2023-04-26T14:13:28.137Z,46.38
2023-04-26T14:15:56.327Z,44.92
2023-04-26T14:18:24.483Z,44.22
2023-04-26T14:20:52.493Z,43.75
2023-04-26T14:23:20.667Z,43.16
2023-04-26T14:25:52.598Z,42.60
2023-04-26T14:28:20.890Z,41.83
2023-04-26T14:30:48.958Z,41.75
2023-04-26T14:33:17.413Z,41.14
2023-04-26T14:35:46.401Z,40.62
2023-04-26T14:38:14.647Z,40.40
2023-04-26T14:40:42.747Z,40.94
2023-04-26T14:43:11.120Z,41.07
2023-04-26T14:45:44.465Z,39.53
2023-04-26T14:48:13.244Z,38.22
2023-04-26T14:50:41.901Z,38.28
2023-04-26T14:53:10.502Z,37.79
2023-04-26T14:55:38.659Z,37.49
2023-04-26T14:58:06.698Z,37.01
2023-04-26T15:00:34.815Z,37.32
2023-04-26T15:03:03.100Z,37.43
2023-04-26T15:05:32.000Z,37.55
2023-04-26T15:08:00.144Z,38.26
2023-04-26T15:10:28.227Z,38.74
2023-04-26T15:12:56.569Z,39.15
2023-04-26T15:15:24.653Z,39.69
2023-04-26T15:17:53.063Z,39.99
2023-04-26T15:20:21.721Z,39.77
2023-04-26T15:22:49.770Z,40.50
2023-04-26T15:25:17.941Z,40.68
2023-04-26T15:27:47.143Z,41.12
2023-04-26T15:30:15.272Z,41.56
2023-04-26T15:32:43.348Z,41.30
2023-04-26T15:35:14.343Z,40.66
2023-04-26T15:37:42.498Z,40.38
2023-04-26T15:40:11.039Z,40.34
2023-04-26T15:42:39.505Z,39.85
2023-04-26T15:45:07.989Z,39.49
2023-04-26T15:47:37.308Z,38.31
2023-04-26T15:50:07.861Z,37.67
2023-04-26T15:52:39.221Z,37.62
2023-04-26T15:55:08.053Z,38.00
2023-04-26T15:57:36.483Z,38.37
2023-04-26T16:00:08.432Z,38.43
2023-04-26T16:02:37.025Z,38.51
2023-04-26T16:05:08.335Z,39.43
2023-04-26T16:07:38.962Z,39.83
2023-04-26T16:10:09.774Z,39.68
2023-04-26T16:12:40.673Z,39.76
2023-04-26T16:15:09.953Z,39.79
2023-04-26T16:17:38.391Z,39.42
2023-04-26T16:20:08.273Z,39.31
2023-04-26T16:22:36.787Z,39.35
2023-04-26T16:25:07.117Z,38.80
2023-04-26T16:27:35.854Z,39.61
2023-04-26T16:30:04.114Z,40.22
2023-04-26T16:32:32.424Z,41.12
2023-04-26T16:35:00.909Z,41.53
2023-04-26T16:37:28.968Z,41.58
2023-04-26T16:39:57.340Z,42.39
2023-04-26T16:42:25.407Z,42.85
2023-04-26T16:44:55.037Z,42.66
2023-04-26T16:47:23.086Z,42.06
2023-04-26T16:49:51.666Z,41.60
2023-04-26T16:52:19.865Z,42.02
2023-04-26T16:54:47.910Z,41.95
2023-04-26T16:57:16.702Z,42.22
2023-04-26T16:59:44.723Z,42.47
2023-04-26T17:02:14.090Z,42.53
2023-04-26T17:04:42.616Z,42.75
2023-04-26T17:07:11.444Z,42.85
2023-04-26T17:09:40.023Z,43.06
2023-04-26T17:12:08.117Z,43.24
2023-04-26T17:14:36.317Z,43.77
2023-04-26T17:17:04.435Z,43.85
2023-04-26T17:19:32.489Z,43.90
2023-04-26T17:22:00.605Z,43.81
2023-04-26T17:24:28.761Z,44.21
2023-04-26T17:26:56.729Z,44.07
2023-04-26T17:29:24.792Z,44.21
2023-04-26T17:31:52.917Z,44.90
2023-04-26T17:34:21.113Z,45.18
2023-04-26T17:36:49.238Z,44.56
2023-04-26T17:39:17.579Z,44.57
2023-04-26T17:41:45.754Z,44.40
2023-04-26T17:44:13.921Z,44.98
2023-04-26T17:46:41.998Z,45.42
2023-04-26T17:49:10.168Z,45.00
2023-04-26T17:51:38.318Z,45.58
2023-04-26T17:54:06.516Z,45.25
2023-04-26T17:56:34.717Z,45.37
2023-04-26T17:59:03.773Z,45.33
2023-04-26T18:01:31.908Z,45.16
2023-04-26T18:04:00.168Z,45.79
2023-04-26T18:06:28.367Z,45.67
2023-04-26T18:08:56.370Z,45.71
2023-04-26T18:11:24.642Z,46.03
2023-04-26T18:13:52.719Z,46.32
2023-04-26T18:16:20.953Z,46.47
2023-04-26T18:18:48.993Z,46.62
2023-04-26T18:21:17.059Z,47.07
2023-04-26T18:23:47.249Z,47.46
2023-04-26T18:26:15.342Z,47.41
2023-04-26T18:28:44.995Z,47.47
2023-04-26T18:31:13.023Z,47.96
2023-04-26T18:33:40.960Z,47.95
2023-04-26T18:36:09.450Z,48.47
2023-04-26T18:38:37.417Z,49.10
2023-04-26T18:41:05.410Z,48.66
2023-04-26T18:43:33.452Z,49.29
2023-04-26T18:46:01.806Z,49.51
2023-04-26T18:48:29.954Z,49.53
2023-04-26T18:50:57.971Z,49.90
2023-04-26T18:53:26.086Z,49.70
2023-04-26T18:55:54.216Z,50.47
2023-04-26T18:58:22.486Z,50.49
2023-04-26T19:00:50.470Z,50.82
2023-04-26T19:03:18.629Z,50.97
2023-04-26T19:05:46.886Z,51.18
2023-04-26T19:08:14.839Z,51.31
2023-04-26T19:10:42.843Z,51.55
2023-04-26T19:13:10.829Z,51.99
2023-04-26T19:15:38.841Z,51.71
2023-04-26T19:18:07.028Z,52.09
2023-04-26T19:20:35.355Z,52.15
2023-04-26T19:23:03.414Z,52.01
2023-04-26T19:25:31.886Z,51.98
2023-04-26T19:28:00.035Z,52.04
2023-04-26T19:30:28.225Z,52.39
2023-04-26T19:32:57.335Z,52.24
2023-04-26T19:35:25.565Z,52.34
2023-04-26T19:37:53.650Z,52.54
2023-04-26T19:40:21.636Z,53.18
2023-04-26T19:42:49.721Z,52.80
2023-04-26T19:45:20.556Z,52.70
2023-04-26T19:47:48.539Z,52.82
2023-04-26T19:50:16.596Z,52.91
2023-04-26T19:52:44.785Z,53.22
2023-04-26T19:55:12.701Z,52.92
2023-04-26T19:57:41.311Z,53.32
2023-04-26T20:00:11.648Z,53.47
2023-04-26T20:02:39.836Z,53.51
2023-04-26T20:05:09.455Z,53.64
2023-04-26T20:07:37.400Z,53.75
2023-04-26T20:10:06.350Z,54.73
2023-04-26T20:12:34.345Z,54.59
2023-04-26T20:15:02.475Z,55.11
2023-04-26T20:17:30.497Z,55.06
2023-04-26T20:19:58.418Z,54.92
2023-04-26T20:22:26.611Z,54.87
2023-04-26T20:24:54.610Z,55.57
2023-04-26T20:27:22.509Z,55.90
2023-04-26T20:29:50.401Z,55.57
2023-04-26T20:32:18.318Z,55.86
2023-04-26T20:34:46.368Z,55.87
2023-04-26T20:37:14.331Z,56.26
2023-04-26T20:39:42.923Z,56.52
2023-04-26T20:42:10.980Z,56.63
2023-04-26T20:44:38.942Z,56.56
2023-04-26T20:47:06.923Z,56.72
2023-04-26T20:49:34.981Z,56.75
2023-04-26T20:52:03.023Z,57.23
2023-04-26T20:54:31.911Z,58.01
2023-04-26T20:57:00.153Z,58.20
2023-04-26T20:59:28.294Z,58.45
2023-04-26T21:01:56.512Z,58.88
2023-04-26T21:04:25.040Z,59.22
2023-04-26T21:06:53.601Z,59.59
2023-04-26T21:09:21.770Z,59.68
2023-04-26T21:11:49.712Z,59.89
2023-04-26T21:14:17.850Z,60.15
2023-04-26T21:16:45.913Z,60.29
2023-04-26T21:19:14.094Z,60.69
2023-04-26T21:21:42.158Z,60.81
2023-04-26T21:24:10.229Z,60.78
2023-04-26T21:26:38.193Z,60.94
2023-04-26T21:29:07.753Z,60.56
2023-04-26T21:31:36.435Z,59.94
2023-04-26T21:34:04.574Z,59.68
2023-04-26T21:36:32.725Z,60.04
2023-04-26T21:39:01.428Z,60.05
2023-04-26T21:41:29.394Z,60.10
2023-04-26T21:43:58.900Z,60.42
2023-04-26T21:46:26.989Z,60.47
2023-04-26T21:48:55.030Z,60.71
2023-04-26T21:51:23.202Z,60.74
2023-04-26T21:53:51.175Z,60.64
2023-04-26T21:56:19.240Z,61.05
2023-04-26T21:58:47.208Z,61.16
2023-04-26T22:01:15.744Z,61.72
2023-04-26T22:03:43.971Z,62.23
2023-04-26T22:06:12.446Z,62.37
2023-04-26T22:08:41.370Z,62.68
2023-04-26T22:11:09.406Z,62.79
2023-04-26T22:13:37.401Z,62.69
2023-04-26T22:16:06.333Z,62.59
2023-04-26T22:18:35.568Z,62.13
2023-04-26T22:21:03.731Z,62.06
2023-04-26T22:23:31.718Z,62.09
2023-04-26T22:26:00.800Z,61.73
2023-04-26T22:28:28.767Z,61.71
2023-04-26T22:30:56.840Z,61.90
2023-04-26T22:33:24.786Z,62.21
2023-04-26T22:35:57.800Z,62.85
2023-04-26T22:38:25.927Z,63.15
2023-04-26T22:40:54.325Z,62.75
2023-04-26T22:43:22.956Z,62.44
2023-04-26T22:45:51.051Z,62.52
2023-04-26T22:48:19.064Z,62.96
2023-04-26T22:50:49.913Z,62.90
2023-04-26T22:53:17.933Z,62.48
2023-04-26T22:55:46.141Z,62.67
2023-04-26T22:58:14.113Z,62.93
2023-04-26T23:00:42.181Z,62.83
2023-04-26T23:03:10.170Z,63.02
2023-04-26T23:05:38.322Z,63.28
2023-04-26T23:08:06.594Z,63.36
2023-04-26T23:10:34.567Z,63.06
2023-04-26T23:13:02.841Z,63.28
2023-04-26T23:15:32.050Z,63.75
2023-04-26T23:18:01.106Z,63.95
2023-04-26T23:20:29.156Z,64.24
2023-04-26T23:22:57.133Z,64.38
2023-04-26T23:25:25.309Z,64.23
2023-04-26T23:27:53.423Z,64.26
2023-04-26T23:30:21.593Z,64.62
2023-04-26T23:32:49.620Z,64.78
2023-04-26T23:35:17.639Z,64.52
2023-04-26T23:37:46.007Z,64.86
2023-04-26T23:40:14.242Z,65.23
2023-04-26T23:42:42.245Z,65.40
2023-04-26T23:45:10.927Z,65.69
2023-04-26T23:47:39.144Z,65.87
2023-04-26T23:50:07.559Z,65.84
2023-04-26T23:52:36.074Z,65.94
2023-04-26T23:55:04.541Z,65.92
2023-04-26T23:57:32.514Z,66.21
